<?xml version="1.0" encoding="UTF-8" standalone="no" ?>
<gpx xmlns="http://www.topografix.com/GPX/1/1" xmlns:xsi="http://www.w3.org/2001/XMLSchema-instance" xsi:schemaLocation="http://www.topografix.com/GPX/1/1 http://www.topografix.com/GPX/1/1/gpx.xsd" version="1.1" creator="VisuGPX - https://www.visugpx.com">
  <metadata>
    <name>Boucle Laragnais</name>
    <desc><![CDATA[Proposée par Espaces Buech Rando
Balisée en Orange (Balisage Equestre)]]></desc>
  </metadata>
  <trk>
    <name><![CDATA[Track]]></name>
    <trkseg>
      <trkpt lat="44.40969" lon="5.7551">
        <ele>648</ele>
        <time>2010-07-15T06:02:33Z</time>
      </trkpt>
      <trkpt lat="44.4097" lon="5.7551">
        <ele>651</ele>
        <time>2010-07-15T06:02:50Z</time>
      </trkpt>
      <trkpt lat="44.40971" lon="5.75508">
        <ele>649</ele>
        <time>2010-07-15T06:02:55Z</time>
      </trkpt>
      <trkpt lat="44.40975" lon="5.75506">
        <ele>649</ele>
        <time>2010-07-15T06:03:09Z</time>
      </trkpt>
      <trkpt lat="44.40973" lon="5.75509">
        <ele>650</ele>
        <time>2010-07-15T06:03:31Z</time>
      </trkpt>
      <trkpt lat="44.40974" lon="5.75518">
        <ele>650</ele>
        <time>2010-07-15T06:03:54Z</time>
      </trkpt>
      <trkpt lat="44.40982" lon="5.75536">
        <ele>651</ele>
        <time>2010-07-15T06:04:08Z</time>
      </trkpt>
      <trkpt lat="44.40971" lon="5.75556">
        <ele>651</ele>
        <time>2010-07-15T06:04:24Z</time>
      </trkpt>
      <trkpt lat="44.40968" lon="5.75565">
        <ele>651</ele>
        <time>2010-07-15T06:04:30Z</time>
      </trkpt>
      <trkpt lat="44.40957" lon="5.75578">
        <ele>650</ele>
        <time>2010-07-15T06:04:44Z</time>
      </trkpt>
      <trkpt lat="44.40951" lon="5.7558">
        <ele>650</ele>
        <time>2010-07-15T06:04:48Z</time>
      </trkpt>
      <trkpt lat="44.40941" lon="5.75588">
        <ele>649</ele>
        <time>2010-07-15T06:04:58Z</time>
      </trkpt>
      <trkpt lat="44.40921" lon="5.75615">
        <ele>648</ele>
        <time>2010-07-15T06:05:20Z</time>
      </trkpt>
      <trkpt lat="44.40913" lon="5.75634">
        <ele>648</ele>
        <time>2010-07-15T06:05:34Z</time>
      </trkpt>
      <trkpt lat="44.40943" lon="5.75664">
        <ele>649</ele>
        <time>2010-07-15T06:06:01Z</time>
      </trkpt>
      <trkpt lat="44.40971" lon="5.75703">
        <ele>651</ele>
        <time>2010-07-15T06:06:33Z</time>
      </trkpt>
      <trkpt lat="44.40992" lon="5.75735">
        <ele>653</ele>
        <time>2010-07-15T06:06:58Z</time>
      </trkpt>
      <trkpt lat="44.41006" lon="5.75758">
        <ele>654</ele>
        <time>2010-07-15T06:07:15Z</time>
      </trkpt>
      <trkpt lat="44.41015" lon="5.75774">
        <ele>655</ele>
        <time>2010-07-15T06:07:34Z</time>
      </trkpt>
      <trkpt lat="44.41014" lon="5.75774">
        <ele>656</ele>
        <time>2010-07-15T06:07:59Z</time>
      </trkpt>
      <trkpt lat="44.41017" lon="5.75781">
        <ele>656</ele>
        <time>2010-07-15T06:08:05Z</time>
      </trkpt>
      <trkpt lat="44.41016" lon="5.75789">
        <ele>654</ele>
        <time>2010-07-15T06:08:10Z</time>
      </trkpt>
      <trkpt lat="44.40986" lon="5.75814">
        <ele>652</ele>
        <time>2010-07-15T06:08:36Z</time>
      </trkpt>
      <trkpt lat="44.40984" lon="5.75816">
        <ele>651</ele>
        <time>2010-07-15T06:08:38Z</time>
      </trkpt>
      <trkpt lat="44.4096" lon="5.75838">
        <ele>650</ele>
        <time>2010-07-15T06:09:01Z</time>
      </trkpt>
      <trkpt lat="44.40957" lon="5.75843">
        <ele>650</ele>
        <time>2010-07-15T06:09:22Z</time>
      </trkpt>
      <trkpt lat="44.40942" lon="5.75854">
        <ele>650</ele>
        <time>2010-07-15T06:09:37Z</time>
      </trkpt>
      <trkpt lat="44.40924" lon="5.75868">
        <ele>649</ele>
        <time>2010-07-15T06:09:52Z</time>
      </trkpt>
      <trkpt lat="44.40907" lon="5.75877">
        <ele>649</ele>
        <time>2010-07-15T06:10:08Z</time>
      </trkpt>
      <trkpt lat="44.40878" lon="5.75906">
        <ele>649</ele>
        <time>2010-07-15T06:10:38Z</time>
      </trkpt>
      <trkpt lat="44.40853" lon="5.75947">
        <ele>649</ele>
        <time>2010-07-15T06:11:08Z</time>
      </trkpt>
      <trkpt lat="44.40842" lon="5.75972">
        <ele>649</ele>
        <time>2010-07-15T06:11:24Z</time>
      </trkpt>
      <trkpt lat="44.40838" lon="5.76004">
        <ele>650</ele>
        <time>2010-07-15T06:11:42Z</time>
      </trkpt>
      <trkpt lat="44.40838" lon="5.76006">
        <ele>650</ele>
        <time>2010-07-15T06:11:43Z</time>
      </trkpt>
      <trkpt lat="44.40839" lon="5.76013">
        <ele>651</ele>
        <time>2010-07-15T06:11:58Z</time>
      </trkpt>
      <trkpt lat="44.40839" lon="5.76013">
        <ele>652</ele>
        <time>2010-07-15T06:12:23Z</time>
      </trkpt>
      <trkpt lat="44.4085" lon="5.76044">
        <ele>653</ele>
        <time>2010-07-15T06:12:35Z</time>
      </trkpt>
      <trkpt lat="44.40852" lon="5.76078">
        <ele>655</ele>
        <time>2010-07-15T06:12:51Z</time>
      </trkpt>
      <trkpt lat="44.40851" lon="5.76115">
        <ele>657</ele>
        <time>2010-07-15T06:13:10Z</time>
      </trkpt>
      <trkpt lat="44.40851" lon="5.7615">
        <ele>659</ele>
        <time>2010-07-15T06:13:30Z</time>
      </trkpt>
      <trkpt lat="44.40851" lon="5.76157">
        <ele>659</ele>
        <time>2010-07-15T06:13:34Z</time>
      </trkpt>
      <trkpt lat="44.40851" lon="5.76164">
        <ele>660</ele>
        <time>2010-07-15T06:13:38Z</time>
      </trkpt>
      <trkpt lat="44.40851" lon="5.76169">
        <ele>659</ele>
        <time>2010-07-15T06:13:41Z</time>
      </trkpt>
      <trkpt lat="44.4085" lon="5.76186">
        <ele>661</ele>
        <time>2010-07-15T06:13:50Z</time>
      </trkpt>
      <trkpt lat="44.40858" lon="5.76221">
        <ele>662</ele>
        <time>2010-07-15T06:14:09Z</time>
      </trkpt>
      <trkpt lat="44.40867" lon="5.76245">
        <ele>666</ele>
        <time>2010-07-15T06:14:23Z</time>
      </trkpt>
      <trkpt lat="44.40875" lon="5.76275">
        <ele>669</ele>
        <time>2010-07-15T06:14:41Z</time>
      </trkpt>
      <trkpt lat="44.40879" lon="5.76306">
        <ele>671</ele>
        <time>2010-07-15T06:14:57Z</time>
      </trkpt>
      <trkpt lat="44.4088" lon="5.76323">
        <ele>673</ele>
        <time>2010-07-15T06:15:07Z</time>
      </trkpt>
      <trkpt lat="44.40882" lon="5.76356">
        <ele>676</ele>
        <time>2010-07-15T06:15:25Z</time>
      </trkpt>
      <trkpt lat="44.40888" lon="5.76386">
        <ele>678</ele>
        <time>2010-07-15T06:15:43Z</time>
      </trkpt>
      <trkpt lat="44.40894" lon="5.76416">
        <ele>679</ele>
        <time>2010-07-15T06:16:00Z</time>
      </trkpt>
      <trkpt lat="44.40901" lon="5.76455">
        <ele>682</ele>
        <time>2010-07-15T06:16:22Z</time>
      </trkpt>
      <trkpt lat="44.4091" lon="5.76496">
        <ele>684</ele>
        <time>2010-07-15T06:16:42Z</time>
      </trkpt>
      <trkpt lat="44.4091" lon="5.76526">
        <ele>687</ele>
        <time>2010-07-15T06:16:57Z</time>
      </trkpt>
      <trkpt lat="44.4091" lon="5.76565">
        <ele>690</ele>
        <time>2010-07-15T06:17:18Z</time>
      </trkpt>
      <trkpt lat="44.40908" lon="5.76596">
        <ele>693</ele>
        <time>2010-07-15T06:17:35Z</time>
      </trkpt>
      <trkpt lat="44.40899" lon="5.76636">
        <ele>696</ele>
        <time>2010-07-15T06:17:56Z</time>
      </trkpt>
      <trkpt lat="44.40885" lon="5.76664">
        <ele>699</ele>
        <time>2010-07-15T06:18:15Z</time>
      </trkpt>
      <trkpt lat="44.40871" lon="5.76684">
        <ele>700</ele>
        <time>2010-07-15T06:18:30Z</time>
      </trkpt>
      <trkpt lat="44.40841" lon="5.76702">
        <ele>703</ele>
        <time>2010-07-15T06:18:51Z</time>
      </trkpt>
      <trkpt lat="44.40835" lon="5.76713">
        <ele>704</ele>
        <time>2010-07-15T06:18:59Z</time>
      </trkpt>
      <trkpt lat="44.40833" lon="5.7672">
        <ele>705</ele>
        <time>2010-07-15T06:19:04Z</time>
      </trkpt>
      <trkpt lat="44.40822" lon="5.76749">
        <ele>709</ele>
        <time>2010-07-15T06:19:22Z</time>
      </trkpt>
      <trkpt lat="44.40809" lon="5.76774">
        <ele>712</ele>
        <time>2010-07-15T06:19:40Z</time>
      </trkpt>
      <trkpt lat="44.40795" lon="5.76794">
        <ele>713</ele>
        <time>2010-07-15T06:19:54Z</time>
      </trkpt>
      <trkpt lat="44.40789" lon="5.7681">
        <ele>716</ele>
        <time>2010-07-15T06:20:05Z</time>
      </trkpt>
      <trkpt lat="44.40787" lon="5.76834">
        <ele>717</ele>
        <time>2010-07-15T06:20:20Z</time>
      </trkpt>
      <trkpt lat="44.40794" lon="5.76864">
        <ele>719</ele>
        <time>2010-07-15T06:20:38Z</time>
      </trkpt>
      <trkpt lat="44.40815" lon="5.76884">
        <ele>720</ele>
        <time>2010-07-15T06:20:59Z</time>
      </trkpt>
      <trkpt lat="44.40834" lon="5.76902">
        <ele>720</ele>
        <time>2010-07-15T06:21:17Z</time>
      </trkpt>
      <trkpt lat="44.40849" lon="5.76931">
        <ele>720</ele>
        <time>2010-07-15T06:21:36Z</time>
      </trkpt>
      <trkpt lat="44.40859" lon="5.7697">
        <ele>721</ele>
        <time>2010-07-15T06:21:57Z</time>
      </trkpt>
      <trkpt lat="44.40862" lon="5.76994">
        <ele>721</ele>
        <time>2010-07-15T06:22:11Z</time>
      </trkpt>
      <trkpt lat="44.40865" lon="5.77022">
        <ele>723</ele>
        <time>2010-07-15T06:22:26Z</time>
      </trkpt>
      <trkpt lat="44.40877" lon="5.77052">
        <ele>723</ele>
        <time>2010-07-15T06:22:45Z</time>
      </trkpt>
      <trkpt lat="44.40891" lon="5.77089">
        <ele>723</ele>
        <time>2010-07-15T06:23:06Z</time>
      </trkpt>
      <trkpt lat="44.40904" lon="5.77131">
        <ele>724</ele>
        <time>2010-07-15T06:23:29Z</time>
      </trkpt>
      <trkpt lat="44.40913" lon="5.7717">
        <ele>724</ele>
        <time>2010-07-15T06:23:51Z</time>
      </trkpt>
      <trkpt lat="44.40922" lon="5.77213">
        <ele>724</ele>
        <time>2010-07-15T06:24:15Z</time>
      </trkpt>
      <trkpt lat="44.40924" lon="5.77252">
        <ele>724</ele>
        <time>2010-07-15T06:24:36Z</time>
      </trkpt>
      <trkpt lat="44.40925" lon="5.77297">
        <ele>724</ele>
        <time>2010-07-15T06:24:59Z</time>
      </trkpt>
      <trkpt lat="44.40932" lon="5.77324">
        <ele>724</ele>
        <time>2010-07-15T06:25:18Z</time>
      </trkpt>
      <trkpt lat="44.40934" lon="5.77324">
        <ele>723</ele>
        <time>2010-07-15T06:25:19Z</time>
      </trkpt>
      <trkpt lat="44.40955" lon="5.77327">
        <ele>720</ele>
        <time>2010-07-15T06:25:38Z</time>
      </trkpt>
      <trkpt lat="44.40983" lon="5.77322">
        <ele>717</ele>
        <time>2010-07-15T06:26:00Z</time>
      </trkpt>
      <trkpt lat="44.41008" lon="5.77297">
        <ele>714</ele>
        <time>2010-07-15T06:26:22Z</time>
      </trkpt>
      <trkpt lat="44.41038" lon="5.77277">
        <ele>711</ele>
        <time>2010-07-15T06:26:45Z</time>
      </trkpt>
      <trkpt lat="44.41064" lon="5.77267">
        <ele>709</ele>
        <time>2010-07-15T06:27:02Z</time>
      </trkpt>
      <trkpt lat="44.411" lon="5.77262">
        <ele>706</ele>
        <time>2010-07-15T06:27:26Z</time>
      </trkpt>
      <trkpt lat="44.4113" lon="5.77265">
        <ele>703</ele>
        <time>2010-07-15T06:27:43Z</time>
      </trkpt>
      <trkpt lat="44.4116" lon="5.77254">
        <ele>700</ele>
        <time>2010-07-15T06:28:02Z</time>
      </trkpt>
      <trkpt lat="44.41181" lon="5.7724">
        <ele>698</ele>
        <time>2010-07-15T06:28:17Z</time>
      </trkpt>
      <trkpt lat="44.41219" lon="5.77238">
        <ele>696</ele>
        <time>2010-07-15T06:28:41Z</time>
      </trkpt>
      <trkpt lat="44.41228" lon="5.77236">
        <ele>695</ele>
        <time>2010-07-15T06:28:47Z</time>
      </trkpt>
      <trkpt lat="44.41256" lon="5.77231">
        <ele>692</ele>
        <time>2010-07-15T06:29:07Z</time>
      </trkpt>
      <trkpt lat="44.41273" lon="5.77261">
        <ele>691</ele>
        <time>2010-07-15T06:29:28Z</time>
      </trkpt>
      <trkpt lat="44.41284" lon="5.77286">
        <ele>687</ele>
        <time>2010-07-15T06:29:44Z</time>
      </trkpt>
      <trkpt lat="44.41295" lon="5.77307">
        <ele>685</ele>
        <time>2010-07-15T06:29:57Z</time>
      </trkpt>
      <trkpt lat="44.4132" lon="5.77337">
        <ele>682</ele>
        <time>2010-07-15T06:30:20Z</time>
      </trkpt>
      <trkpt lat="44.41351" lon="5.77359">
        <ele>681</ele>
        <time>2010-07-15T06:30:44Z</time>
      </trkpt>
      <trkpt lat="44.4138" lon="5.77375">
        <ele>680</ele>
        <time>2010-07-15T06:31:06Z</time>
      </trkpt>
      <trkpt lat="44.41402" lon="5.77411">
        <ele>681</ele>
        <time>2010-07-15T06:31:28Z</time>
      </trkpt>
      <trkpt lat="44.41421" lon="5.77441">
        <ele>681</ele>
        <time>2010-07-15T06:31:48Z</time>
      </trkpt>
      <trkpt lat="44.41441" lon="5.77464">
        <ele>682</ele>
        <time>2010-07-15T06:32:07Z</time>
      </trkpt>
      <trkpt lat="44.41466" lon="5.77495">
        <ele>683</ele>
        <time>2010-07-15T06:32:31Z</time>
      </trkpt>
      <trkpt lat="44.41495" lon="5.7755">
        <ele>684</ele>
        <time>2010-07-15T06:33:04Z</time>
      </trkpt>
      <trkpt lat="44.41518" lon="5.77579">
        <ele>683</ele>
        <time>2010-07-15T06:33:27Z</time>
      </trkpt>
      <trkpt lat="44.41528" lon="5.77591">
        <ele>682</ele>
        <time>2010-07-15T06:33:44Z</time>
      </trkpt>
      <trkpt lat="44.41524" lon="5.77591">
        <ele>682</ele>
        <time>2010-07-15T06:33:58Z</time>
      </trkpt>
      <trkpt lat="44.41524" lon="5.7759">
        <ele>682</ele>
        <time>2010-07-15T06:33:59Z</time>
      </trkpt>
      <trkpt lat="44.41526" lon="5.77585">
        <ele>682</ele>
        <time>2010-07-15T06:34:03Z</time>
      </trkpt>
      <trkpt lat="44.41536" lon="5.77586">
        <ele>683</ele>
        <time>2010-07-15T06:34:10Z</time>
      </trkpt>
      <trkpt lat="44.41556" lon="5.77608">
        <ele>684</ele>
        <time>2010-07-15T06:34:29Z</time>
      </trkpt>
      <trkpt lat="44.41572" lon="5.77632">
        <ele>683</ele>
        <time>2010-07-15T06:34:49Z</time>
      </trkpt>
      <trkpt lat="44.41585" lon="5.77658">
        <ele>684</ele>
        <time>2010-07-15T06:35:08Z</time>
      </trkpt>
      <trkpt lat="44.41599" lon="5.77679">
        <ele>684</ele>
        <time>2010-07-15T06:35:25Z</time>
      </trkpt>
      <trkpt lat="44.416" lon="5.77681">
        <ele>683</ele>
        <time>2010-07-15T06:35:28Z</time>
      </trkpt>
      <trkpt lat="44.41613" lon="5.77679">
        <ele>684</ele>
        <time>2010-07-15T06:35:41Z</time>
      </trkpt>
      <trkpt lat="44.41622" lon="5.77681">
        <ele>687</ele>
        <time>2010-07-15T06:35:48Z</time>
      </trkpt>
      <trkpt lat="44.41624" lon="5.77683">
        <ele>687</ele>
        <time>2010-07-15T06:35:49Z</time>
      </trkpt>
      <trkpt lat="44.41635" lon="5.77726">
        <ele>688</ele>
        <time>2010-07-15T06:36:10Z</time>
      </trkpt>
      <trkpt lat="44.41658" lon="5.77759">
        <ele>690</ele>
        <time>2010-07-15T06:36:34Z</time>
      </trkpt>
      <trkpt lat="44.41694" lon="5.77788">
        <ele>691</ele>
        <time>2010-07-15T06:37:03Z</time>
      </trkpt>
      <trkpt lat="44.41716" lon="5.77816">
        <ele>693</ele>
        <time>2010-07-15T06:37:25Z</time>
      </trkpt>
      <trkpt lat="44.41724" lon="5.77841">
        <ele>694</ele>
        <time>2010-07-15T06:37:39Z</time>
      </trkpt>
      <trkpt lat="44.4173" lon="5.77878">
        <ele>694</ele>
        <time>2010-07-15T06:37:58Z</time>
      </trkpt>
      <trkpt lat="44.41736" lon="5.77922">
        <ele>694</ele>
        <time>2010-07-15T06:38:20Z</time>
      </trkpt>
      <trkpt lat="44.41768" lon="5.7796">
        <ele>696</ele>
        <time>2010-07-15T06:38:50Z</time>
      </trkpt>
      <trkpt lat="44.41801" lon="5.77988">
        <ele>697</ele>
        <time>2010-07-15T06:39:18Z</time>
      </trkpt>
      <trkpt lat="44.41833" lon="5.78017">
        <ele>699</ele>
        <time>2010-07-15T06:39:45Z</time>
      </trkpt>
      <trkpt lat="44.4187" lon="5.78056">
        <ele>701</ele>
        <time>2010-07-15T06:40:18Z</time>
      </trkpt>
      <trkpt lat="44.41881" lon="5.78072">
        <ele>702</ele>
        <time>2010-07-15T06:40:29Z</time>
      </trkpt>
      <trkpt lat="44.41895" lon="5.78096">
        <ele>703</ele>
        <time>2010-07-15T06:40:45Z</time>
      </trkpt>
      <trkpt lat="44.41911" lon="5.78125">
        <ele>703</ele>
        <time>2010-07-15T06:41:04Z</time>
      </trkpt>
      <trkpt lat="44.41937" lon="5.78162">
        <ele>706</ele>
        <time>2010-07-15T06:41:31Z</time>
      </trkpt>
      <trkpt lat="44.41956" lon="5.78198">
        <ele>707</ele>
        <time>2010-07-15T06:41:56Z</time>
      </trkpt>
      <trkpt lat="44.41962" lon="5.78234">
        <ele>708</ele>
        <time>2010-07-15T06:42:15Z</time>
      </trkpt>
      <trkpt lat="44.41965" lon="5.78238">
        <ele>708</ele>
        <time>2010-07-15T06:42:19Z</time>
      </trkpt>
      <trkpt lat="44.41995" lon="5.78237">
        <ele>710</ele>
        <time>2010-07-15T06:42:42Z</time>
      </trkpt>
      <trkpt lat="44.4201" lon="5.78249">
        <ele>711</ele>
        <time>2010-07-15T06:42:59Z</time>
      </trkpt>
      <trkpt lat="44.42013" lon="5.78279">
        <ele>711</ele>
        <time>2010-07-15T06:43:14Z</time>
      </trkpt>
      <trkpt lat="44.42014" lon="5.78323">
        <ele>713</ele>
        <time>2010-07-15T06:43:37Z</time>
      </trkpt>
      <trkpt lat="44.4201" lon="5.78382">
        <ele>715</ele>
        <time>2010-07-15T06:44:08Z</time>
      </trkpt>
      <trkpt lat="44.41993" lon="5.78423">
        <ele>717</ele>
        <time>2010-07-15T06:44:33Z</time>
      </trkpt>
      <trkpt lat="44.41986" lon="5.7847">
        <ele>719</ele>
        <time>2010-07-15T06:44:59Z</time>
      </trkpt>
      <trkpt lat="44.41984" lon="5.78518">
        <ele>720</ele>
        <time>2010-07-15T06:45:25Z</time>
      </trkpt>
      <trkpt lat="44.41963" lon="5.78539">
        <ele>722</ele>
        <time>2010-07-15T06:45:45Z</time>
      </trkpt>
      <trkpt lat="44.41945" lon="5.7856">
        <ele>723</ele>
        <time>2010-07-15T06:46:04Z</time>
      </trkpt>
      <trkpt lat="44.41943" lon="5.78564">
        <ele>724</ele>
        <time>2010-07-15T06:46:07Z</time>
      </trkpt>
      <trkpt lat="44.41943" lon="5.78573">
        <ele>724</ele>
        <time>2010-07-15T06:46:13Z</time>
      </trkpt>
      <trkpt lat="44.41953" lon="5.78595">
        <ele>725</ele>
        <time>2010-07-15T06:46:27Z</time>
      </trkpt>
      <trkpt lat="44.41962" lon="5.78645">
        <ele>725</ele>
        <time>2010-07-15T06:46:54Z</time>
      </trkpt>
      <trkpt lat="44.41977" lon="5.78671">
        <ele>726</ele>
        <time>2010-07-15T06:47:13Z</time>
      </trkpt>
      <trkpt lat="44.41984" lon="5.78682">
        <ele>725</ele>
        <time>2010-07-15T06:47:21Z</time>
      </trkpt>
      <trkpt lat="44.41988" lon="5.78689">
        <ele>725</ele>
        <time>2010-07-15T06:47:26Z</time>
      </trkpt>
      <trkpt lat="44.42003" lon="5.78722">
        <ele>726</ele>
        <time>2010-07-15T06:47:47Z</time>
      </trkpt>
      <trkpt lat="44.42001" lon="5.78758">
        <ele>726</ele>
        <time>2010-07-15T06:48:05Z</time>
      </trkpt>
      <trkpt lat="44.4199" lon="5.78813">
        <ele>726</ele>
        <time>2010-07-15T06:48:32Z</time>
      </trkpt>
      <trkpt lat="44.41989" lon="5.78849">
        <ele>728</ele>
        <time>2010-07-15T06:48:51Z</time>
      </trkpt>
      <trkpt lat="44.41988" lon="5.78859">
        <ele>725</ele>
        <time>2010-07-15T06:48:57Z</time>
      </trkpt>
      <trkpt lat="44.41984" lon="5.78911">
        <ele>726</ele>
        <time>2010-07-15T06:49:24Z</time>
      </trkpt>
      <trkpt lat="44.41983" lon="5.78955">
        <ele>727</ele>
        <time>2010-07-15T06:49:48Z</time>
      </trkpt>
      <trkpt lat="44.42009" lon="5.79007">
        <ele>726</ele>
        <time>2010-07-15T06:50:21Z</time>
      </trkpt>
      <trkpt lat="44.42015" lon="5.79025">
        <ele>726</ele>
        <time>2010-07-15T06:50:32Z</time>
      </trkpt>
      <trkpt lat="44.4202" lon="5.79074">
        <ele>725</ele>
        <time>2010-07-15T06:50:57Z</time>
      </trkpt>
      <trkpt lat="44.42019" lon="5.79114">
        <ele>725</ele>
        <time>2010-07-15T06:51:17Z</time>
      </trkpt>
      <trkpt lat="44.42008" lon="5.79145">
        <ele>724</ele>
        <time>2010-07-15T06:51:37Z</time>
      </trkpt>
      <trkpt lat="44.41977" lon="5.79175">
        <ele>721</ele>
        <time>2010-07-15T06:52:05Z</time>
      </trkpt>
      <trkpt lat="44.41943" lon="5.79206">
        <ele>719</ele>
        <time>2010-07-15T06:52:35Z</time>
      </trkpt>
      <trkpt lat="44.41921" lon="5.79223">
        <ele>718</ele>
        <time>2010-07-15T06:52:53Z</time>
      </trkpt>
      <trkpt lat="44.41898" lon="5.79235">
        <ele>719</ele>
        <time>2010-07-15T06:53:12Z</time>
      </trkpt>
      <trkpt lat="44.4187" lon="5.79244">
        <ele>718</ele>
        <time>2010-07-15T06:53:30Z</time>
      </trkpt>
      <trkpt lat="44.41834" lon="5.7923">
        <ele>718</ele>
        <time>2010-07-15T06:53:56Z</time>
      </trkpt>
      <trkpt lat="44.41792" lon="5.79221">
        <ele>717</ele>
        <time>2010-07-15T06:54:25Z</time>
      </trkpt>
      <trkpt lat="44.4174" lon="5.79224">
        <ele>716</ele>
        <time>2010-07-15T06:55:01Z</time>
      </trkpt>
      <trkpt lat="44.41698" lon="5.79227">
        <ele>716</ele>
        <time>2010-07-15T06:55:30Z</time>
      </trkpt>
      <trkpt lat="44.41665" lon="5.79228">
        <ele>715</ele>
        <time>2010-07-15T06:55:52Z</time>
      </trkpt>
      <trkpt lat="44.41633" lon="5.79235">
        <ele>714</ele>
        <time>2010-07-15T06:56:15Z</time>
      </trkpt>
      <trkpt lat="44.41624" lon="5.7924">
        <ele>714</ele>
        <time>2010-07-15T06:56:22Z</time>
      </trkpt>
      <trkpt lat="44.4159" lon="5.79262">
        <ele>715</ele>
        <time>2010-07-15T06:56:47Z</time>
      </trkpt>
      <trkpt lat="44.41551" lon="5.79289">
        <ele>715</ele>
        <time>2010-07-15T06:57:17Z</time>
      </trkpt>
      <trkpt lat="44.4152" lon="5.79304">
        <ele>715</ele>
        <time>2010-07-15T06:57:41Z</time>
      </trkpt>
      <trkpt lat="44.41485" lon="5.79309">
        <ele>717</ele>
        <time>2010-07-15T06:58:05Z</time>
      </trkpt>
      <trkpt lat="44.41457" lon="5.7931">
        <ele>718</ele>
        <time>2010-07-15T06:58:25Z</time>
      </trkpt>
      <trkpt lat="44.41431" lon="5.79311">
        <ele>717</ele>
        <time>2010-07-15T06:58:44Z</time>
      </trkpt>
      <trkpt lat="44.41404" lon="5.79317">
        <ele>717</ele>
        <time>2010-07-15T06:59:02Z</time>
      </trkpt>
      <trkpt lat="44.41369" lon="5.79315">
        <ele>720</ele>
        <time>2010-07-15T06:59:27Z</time>
      </trkpt>
      <trkpt lat="44.41368" lon="5.79315">
        <ele>719</ele>
        <time>2010-07-15T06:59:28Z</time>
      </trkpt>
      <trkpt lat="44.41349" lon="5.79313">
        <ele>720</ele>
        <time>2010-07-15T06:59:44Z</time>
      </trkpt>
      <trkpt lat="44.41349" lon="5.79313">
        <ele>719</ele>
        <time>2010-07-15T07:00:41Z</time>
      </trkpt>
      <trkpt lat="44.41327" lon="5.79316">
        <ele>719</ele>
        <time>2010-07-15T07:00:57Z</time>
      </trkpt>
      <trkpt lat="44.41289" lon="5.79309">
        <ele>723</ele>
        <time>2010-07-15T07:01:23Z</time>
      </trkpt>
      <trkpt lat="44.41252" lon="5.79303">
        <ele>725</ele>
        <time>2010-07-15T07:01:49Z</time>
      </trkpt>
      <trkpt lat="44.4122" lon="5.79298">
        <ele>727</ele>
        <time>2010-07-15T07:02:13Z</time>
      </trkpt>
      <trkpt lat="44.41194" lon="5.79306">
        <ele>729</ele>
        <time>2010-07-15T07:02:33Z</time>
      </trkpt>
      <trkpt lat="44.41166" lon="5.79324">
        <ele>733</ele>
        <time>2010-07-15T07:02:55Z</time>
      </trkpt>
      <trkpt lat="44.4114" lon="5.79344">
        <ele>734</ele>
        <time>2010-07-15T07:03:17Z</time>
      </trkpt>
      <trkpt lat="44.41119" lon="5.79362">
        <ele>735</ele>
        <time>2010-07-15T07:03:34Z</time>
      </trkpt>
      <trkpt lat="44.41088" lon="5.79376">
        <ele>738</ele>
        <time>2010-07-15T07:03:58Z</time>
      </trkpt>
      <trkpt lat="44.41062" lon="5.79384">
        <ele>740</ele>
        <time>2010-07-15T07:04:15Z</time>
      </trkpt>
      <trkpt lat="44.41034" lon="5.79373">
        <ele>743</ele>
        <time>2010-07-15T07:04:33Z</time>
      </trkpt>
      <trkpt lat="44.41017" lon="5.79359">
        <ele>747</ele>
        <time>2010-07-15T07:04:48Z</time>
      </trkpt>
      <trkpt lat="44.40991" lon="5.7935">
        <ele>749</ele>
        <time>2010-07-15T07:05:09Z</time>
      </trkpt>
      <trkpt lat="44.4096" lon="5.79355">
        <ele>752</ele>
        <time>2010-07-15T07:05:32Z</time>
      </trkpt>
      <trkpt lat="44.40933" lon="5.79365">
        <ele>755</ele>
        <time>2010-07-15T07:05:53Z</time>
      </trkpt>
      <trkpt lat="44.40904" lon="5.79369">
        <ele>757</ele>
        <time>2010-07-15T07:06:15Z</time>
      </trkpt>
      <trkpt lat="44.40881" lon="5.79374">
        <ele>759</ele>
        <time>2010-07-15T07:06:33Z</time>
      </trkpt>
      <trkpt lat="44.40858" lon="5.79384">
        <ele>761</ele>
        <time>2010-07-15T07:06:51Z</time>
      </trkpt>
      <trkpt lat="44.40828" lon="5.79378">
        <ele>762</ele>
        <time>2010-07-15T07:07:13Z</time>
      </trkpt>
      <trkpt lat="44.40808" lon="5.79377">
        <ele>765</ele>
        <time>2010-07-15T07:07:30Z</time>
      </trkpt>
      <trkpt lat="44.40783" lon="5.79375">
        <ele>767</ele>
        <time>2010-07-15T07:07:49Z</time>
      </trkpt>
      <trkpt lat="44.40758" lon="5.79374">
        <ele>771</ele>
        <time>2010-07-15T07:08:05Z</time>
      </trkpt>
      <trkpt lat="44.40732" lon="5.79368">
        <ele>774</ele>
        <time>2010-07-15T07:08:26Z</time>
      </trkpt>
      <trkpt lat="44.4071" lon="5.79361">
        <ele>776</ele>
        <time>2010-07-15T07:08:43Z</time>
      </trkpt>
      <trkpt lat="44.40691" lon="5.79346">
        <ele>779</ele>
        <time>2010-07-15T07:08:58Z</time>
      </trkpt>
      <trkpt lat="44.40671" lon="5.79325">
        <ele>783</ele>
        <time>2010-07-15T07:09:16Z</time>
      </trkpt>
      <trkpt lat="44.40642" lon="5.79316">
        <ele>786</ele>
        <time>2010-07-15T07:09:39Z</time>
      </trkpt>
      <trkpt lat="44.40627" lon="5.79305">
        <ele>787</ele>
        <time>2010-07-15T07:09:53Z</time>
      </trkpt>
      <trkpt lat="44.4061" lon="5.79299">
        <ele>789</ele>
        <time>2010-07-15T07:10:06Z</time>
      </trkpt>
      <trkpt lat="44.4059" lon="5.79294">
        <ele>792</ele>
        <time>2010-07-15T07:10:22Z</time>
      </trkpt>
      <trkpt lat="44.40568" lon="5.79289">
        <ele>796</ele>
        <time>2010-07-15T07:10:39Z</time>
      </trkpt>
      <trkpt lat="44.40547" lon="5.79278">
        <ele>797</ele>
        <time>2010-07-15T07:10:56Z</time>
      </trkpt>
      <trkpt lat="44.40511" lon="5.79273">
        <ele>800</ele>
        <time>2010-07-15T07:11:23Z</time>
      </trkpt>
      <trkpt lat="44.40489" lon="5.79264">
        <ele>803</ele>
        <time>2010-07-15T07:11:41Z</time>
      </trkpt>
      <trkpt lat="44.40469" lon="5.79261">
        <ele>806</ele>
        <time>2010-07-15T07:11:57Z</time>
      </trkpt>
      <trkpt lat="44.40442" lon="5.79261">
        <ele>810</ele>
        <time>2010-07-15T07:12:18Z</time>
      </trkpt>
      <trkpt lat="44.40418" lon="5.79265">
        <ele>812</ele>
        <time>2010-07-15T07:12:37Z</time>
      </trkpt>
      <trkpt lat="44.40399" lon="5.79274">
        <ele>814</ele>
        <time>2010-07-15T07:12:55Z</time>
      </trkpt>
      <trkpt lat="44.40373" lon="5.79282">
        <ele>816</ele>
        <time>2010-07-15T07:13:14Z</time>
      </trkpt>
      <trkpt lat="44.40349" lon="5.7927">
        <ele>818</ele>
        <time>2010-07-15T07:13:33Z</time>
      </trkpt>
      <trkpt lat="44.40332" lon="5.79252">
        <ele>821</ele>
        <time>2010-07-15T07:13:51Z</time>
      </trkpt>
      <trkpt lat="44.4032" lon="5.79238">
        <ele>823</ele>
        <time>2010-07-15T07:14:03Z</time>
      </trkpt>
      <trkpt lat="44.40311" lon="5.79211">
        <ele>824</ele>
        <time>2010-07-15T07:14:19Z</time>
      </trkpt>
      <trkpt lat="44.40297" lon="5.7919">
        <ele>825</ele>
        <time>2010-07-15T07:14:36Z</time>
      </trkpt>
      <trkpt lat="44.40266" lon="5.79195">
        <ele>827</ele>
        <time>2010-07-15T07:14:59Z</time>
      </trkpt>
      <trkpt lat="44.40249" lon="5.79196">
        <ele>829</ele>
        <time>2010-07-15T07:15:13Z</time>
      </trkpt>
      <trkpt lat="44.40231" lon="5.79197">
        <ele>831</ele>
        <time>2010-07-15T07:15:25Z</time>
      </trkpt>
      <trkpt lat="44.40228" lon="5.79196">
        <ele>831</ele>
        <time>2010-07-15T07:15:27Z</time>
      </trkpt>
      <trkpt lat="44.40222" lon="5.79195">
        <ele>832</ele>
        <time>2010-07-15T07:15:32Z</time>
      </trkpt>
      <trkpt lat="44.402" lon="5.79197">
        <ele>835</ele>
        <time>2010-07-15T07:15:50Z</time>
      </trkpt>
      <trkpt lat="44.40175" lon="5.79208">
        <ele>839</ele>
        <time>2010-07-15T07:16:10Z</time>
      </trkpt>
      <trkpt lat="44.40156" lon="5.79227">
        <ele>840</ele>
        <time>2010-07-15T07:16:30Z</time>
      </trkpt>
      <trkpt lat="44.40146" lon="5.79232">
        <ele>841</ele>
        <time>2010-07-15T07:16:38Z</time>
      </trkpt>
      <trkpt lat="44.40125" lon="5.79249">
        <ele>843</ele>
        <time>2010-07-15T07:16:54Z</time>
      </trkpt>
      <trkpt lat="44.40104" lon="5.79258">
        <ele>846</ele>
        <time>2010-07-15T07:17:10Z</time>
      </trkpt>
      <trkpt lat="44.40098" lon="5.79259">
        <ele>847</ele>
        <time>2010-07-15T07:17:15Z</time>
      </trkpt>
      <trkpt lat="44.40089" lon="5.7926">
        <ele>848</ele>
        <time>2010-07-15T07:17:23Z</time>
      </trkpt>
      <trkpt lat="44.40073" lon="5.7927">
        <ele>850</ele>
        <time>2010-07-15T07:17:39Z</time>
      </trkpt>
      <trkpt lat="44.40063" lon="5.79288">
        <ele>852</ele>
        <time>2010-07-15T07:17:52Z</time>
      </trkpt>
      <trkpt lat="44.40057" lon="5.79308">
        <ele>854</ele>
        <time>2010-07-15T07:18:04Z</time>
      </trkpt>
      <trkpt lat="44.40051" lon="5.79329">
        <ele>858</ele>
        <time>2010-07-15T07:18:16Z</time>
      </trkpt>
      <trkpt lat="44.40051" lon="5.79333">
        <ele>859</ele>
        <time>2010-07-15T07:18:18Z</time>
      </trkpt>
      <trkpt lat="44.4005" lon="5.79343">
        <ele>861</ele>
        <time>2010-07-15T07:18:25Z</time>
      </trkpt>
      <trkpt lat="44.4005" lon="5.79348">
        <ele>862</ele>
        <time>2010-07-15T07:18:28Z</time>
      </trkpt>
      <trkpt lat="44.40053" lon="5.79368">
        <ele>865</ele>
        <time>2010-07-15T07:18:41Z</time>
      </trkpt>
      <trkpt lat="44.40046" lon="5.79394">
        <ele>868</ele>
        <time>2010-07-15T07:18:57Z</time>
      </trkpt>
      <trkpt lat="44.40036" lon="5.7941">
        <ele>871</ele>
        <time>2010-07-15T07:19:09Z</time>
      </trkpt>
      <trkpt lat="44.40032" lon="5.79419">
        <ele>872</ele>
        <time>2010-07-15T07:19:16Z</time>
      </trkpt>
      <trkpt lat="44.40029" lon="5.79424">
        <ele>874</ele>
        <time>2010-07-15T07:19:19Z</time>
      </trkpt>
      <trkpt lat="44.40024" lon="5.79432">
        <ele>875</ele>
        <time>2010-07-15T07:19:23Z</time>
      </trkpt>
      <trkpt lat="44.40022" lon="5.79437">
        <ele>875</ele>
        <time>2010-07-15T07:19:25Z</time>
      </trkpt>
      <trkpt lat="44.40018" lon="5.79442">
        <ele>877</ele>
        <time>2010-07-15T07:19:29Z</time>
      </trkpt>
      <trkpt lat="44.40013" lon="5.79447">
        <ele>878</ele>
        <time>2010-07-15T07:19:33Z</time>
      </trkpt>
      <trkpt lat="44.40011" lon="5.79452">
        <ele>880</ele>
        <time>2010-07-15T07:19:36Z</time>
      </trkpt>
      <trkpt lat="44.40008" lon="5.79455">
        <ele>881</ele>
        <time>2010-07-15T07:19:39Z</time>
      </trkpt>
      <trkpt lat="44.3999" lon="5.79451">
        <ele>884</ele>
        <time>2010-07-15T07:19:55Z</time>
      </trkpt>
      <trkpt lat="44.39978" lon="5.79447">
        <ele>884</ele>
        <time>2010-07-15T07:20:05Z</time>
      </trkpt>
      <trkpt lat="44.39964" lon="5.79441">
        <ele>885</ele>
        <time>2010-07-15T07:20:19Z</time>
      </trkpt>
      <trkpt lat="44.39959" lon="5.79442">
        <ele>884</ele>
        <time>2010-07-15T07:20:52Z</time>
      </trkpt>
      <trkpt lat="44.39959" lon="5.79442">
        <ele>885</ele>
        <time>2010-07-15T07:21:10Z</time>
      </trkpt>
      <trkpt lat="44.39958" lon="5.79443">
        <ele>885</ele>
        <time>2010-07-15T07:21:35Z</time>
      </trkpt>
      <trkpt lat="44.39958" lon="5.79447">
        <ele>885</ele>
        <time>2010-07-15T07:21:38Z</time>
      </trkpt>
      <trkpt lat="44.39958" lon="5.79469">
        <ele>885</ele>
        <time>2010-07-15T07:21:54Z</time>
      </trkpt>
      <trkpt lat="44.39953" lon="5.79494">
        <ele>887</ele>
        <time>2010-07-15T07:22:08Z</time>
      </trkpt>
      <trkpt lat="44.39945" lon="5.79523">
        <ele>888</ele>
        <time>2010-07-15T07:22:23Z</time>
      </trkpt>
      <trkpt lat="44.39939" lon="5.7955">
        <ele>889</ele>
        <time>2010-07-15T07:22:38Z</time>
      </trkpt>
      <trkpt lat="44.39938" lon="5.79555">
        <ele>889</ele>
        <time>2010-07-15T07:22:41Z</time>
      </trkpt>
      <trkpt lat="44.39938" lon="5.79558">
        <ele>889</ele>
        <time>2010-07-15T07:22:43Z</time>
      </trkpt>
      <trkpt lat="44.39932" lon="5.79585">
        <ele>891</ele>
        <time>2010-07-15T07:23:00Z</time>
      </trkpt>
      <trkpt lat="44.39928" lon="5.79603">
        <ele>892</ele>
        <time>2010-07-15T07:23:09Z</time>
      </trkpt>
      <trkpt lat="44.39929" lon="5.79614">
        <ele>893</ele>
        <time>2010-07-15T07:23:14Z</time>
      </trkpt>
      <trkpt lat="44.39927" lon="5.79623">
        <ele>893</ele>
        <time>2010-07-15T07:23:20Z</time>
      </trkpt>
      <trkpt lat="44.39918" lon="5.79646">
        <ele>894</ele>
        <time>2010-07-15T07:23:35Z</time>
      </trkpt>
      <trkpt lat="44.39906" lon="5.79664">
        <ele>896</ele>
        <time>2010-07-15T07:23:48Z</time>
      </trkpt>
      <trkpt lat="44.39877" lon="5.79682">
        <ele>899</ele>
        <time>2010-07-15T07:24:11Z</time>
      </trkpt>
      <trkpt lat="44.39846" lon="5.79693">
        <ele>902</ele>
        <time>2010-07-15T07:24:36Z</time>
      </trkpt>
      <trkpt lat="44.39822" lon="5.79694">
        <ele>905</ele>
        <time>2010-07-15T07:24:57Z</time>
      </trkpt>
      <trkpt lat="44.39794" lon="5.79696">
        <ele>906</ele>
        <time>2010-07-15T07:25:20Z</time>
      </trkpt>
      <trkpt lat="44.39772" lon="5.79697">
        <ele>909</ele>
        <time>2010-07-15T07:25:37Z</time>
      </trkpt>
      <trkpt lat="44.39733" lon="5.79702">
        <ele>912</ele>
        <time>2010-07-15T07:26:09Z</time>
      </trkpt>
      <trkpt lat="44.39697" lon="5.79702">
        <ele>915</ele>
        <time>2010-07-15T07:26:36Z</time>
      </trkpt>
      <trkpt lat="44.39666" lon="5.79704">
        <ele>917</ele>
        <time>2010-07-15T07:27:00Z</time>
      </trkpt>
      <trkpt lat="44.3964" lon="5.7971">
        <ele>919</ele>
        <time>2010-07-15T07:27:21Z</time>
      </trkpt>
      <trkpt lat="44.39636" lon="5.79711">
        <ele>920</ele>
        <time>2010-07-15T07:27:24Z</time>
      </trkpt>
      <trkpt lat="44.39602" lon="5.79717">
        <ele>922</ele>
        <time>2010-07-15T07:27:50Z</time>
      </trkpt>
      <trkpt lat="44.39577" lon="5.79728">
        <ele>925</ele>
        <time>2010-07-15T07:28:12Z</time>
      </trkpt>
      <trkpt lat="44.39547" lon="5.79734">
        <ele>928</ele>
        <time>2010-07-15T07:28:36Z</time>
      </trkpt>
      <trkpt lat="44.39521" lon="5.79751">
        <ele>931</ele>
        <time>2010-07-15T07:29:02Z</time>
      </trkpt>
      <trkpt lat="44.39491" lon="5.79762">
        <ele>934</ele>
        <time>2010-07-15T07:29:27Z</time>
      </trkpt>
      <trkpt lat="44.3946" lon="5.79771">
        <ele>936</ele>
        <time>2010-07-15T07:29:52Z</time>
      </trkpt>
      <trkpt lat="44.39454" lon="5.79776">
        <ele>937</ele>
        <time>2010-07-15T07:29:57Z</time>
      </trkpt>
      <trkpt lat="44.39459" lon="5.79783">
        <ele>938</ele>
        <time>2010-07-15T07:30:06Z</time>
      </trkpt>
      <trkpt lat="44.39479" lon="5.79778">
        <ele>941</ele>
        <time>2010-07-15T07:30:22Z</time>
      </trkpt>
      <trkpt lat="44.39497" lon="5.79776">
        <ele>942</ele>
        <time>2010-07-15T07:30:39Z</time>
      </trkpt>
      <trkpt lat="44.39523" lon="5.79775">
        <ele>945</ele>
        <time>2010-07-15T07:31:00Z</time>
      </trkpt>
      <trkpt lat="44.39553" lon="5.79774">
        <ele>948</ele>
        <time>2010-07-15T07:31:22Z</time>
      </trkpt>
      <trkpt lat="44.39581" lon="5.79776">
        <ele>951</ele>
        <time>2010-07-15T07:31:44Z</time>
      </trkpt>
      <trkpt lat="44.3961" lon="5.79785">
        <ele>954</ele>
        <time>2010-07-15T07:32:08Z</time>
      </trkpt>
      <trkpt lat="44.39629" lon="5.79795">
        <ele>956</ele>
        <time>2010-07-15T07:32:25Z</time>
      </trkpt>
      <trkpt lat="44.39647" lon="5.79806">
        <ele>959</ele>
        <time>2010-07-15T07:32:41Z</time>
      </trkpt>
      <trkpt lat="44.39663" lon="5.79817">
        <ele>960</ele>
        <time>2010-07-15T07:32:56Z</time>
      </trkpt>
      <trkpt lat="44.39668" lon="5.79819">
        <ele>961</ele>
        <time>2010-07-15T07:33:00Z</time>
      </trkpt>
      <trkpt lat="44.39684" lon="5.79825">
        <ele>962</ele>
        <time>2010-07-15T07:33:13Z</time>
      </trkpt>
      <trkpt lat="44.39709" lon="5.79831">
        <ele>965</ele>
        <time>2010-07-15T07:33:30Z</time>
      </trkpt>
      <trkpt lat="44.39733" lon="5.79843">
        <ele>968</ele>
        <time>2010-07-15T07:33:51Z</time>
      </trkpt>
      <trkpt lat="44.3975" lon="5.79853">
        <ele>970</ele>
        <time>2010-07-15T07:34:08Z</time>
      </trkpt>
      <trkpt lat="44.39759" lon="5.79861">
        <ele>972</ele>
        <time>2010-07-15T07:34:17Z</time>
      </trkpt>
      <trkpt lat="44.39782" lon="5.79881">
        <ele>974</ele>
        <time>2010-07-15T07:34:40Z</time>
      </trkpt>
      <trkpt lat="44.39806" lon="5.79898">
        <ele>978</ele>
        <time>2010-07-15T07:35:00Z</time>
      </trkpt>
      <trkpt lat="44.39827" lon="5.79918">
        <ele>980</ele>
        <time>2010-07-15T07:35:21Z</time>
      </trkpt>
      <trkpt lat="44.39836" lon="5.79928">
        <ele>982</ele>
        <time>2010-07-15T07:35:31Z</time>
      </trkpt>
      <trkpt lat="44.39859" lon="5.79953">
        <ele>986</ele>
        <time>2010-07-15T07:35:55Z</time>
      </trkpt>
      <trkpt lat="44.3986" lon="5.79954">
        <ele>986</ele>
        <time>2010-07-15T07:35:56Z</time>
      </trkpt>
      <trkpt lat="44.39867" lon="5.79962">
        <ele>988</ele>
        <time>2010-07-15T07:36:04Z</time>
      </trkpt>
      <trkpt lat="44.39868" lon="5.79963">
        <ele>985</ele>
        <time>2010-07-15T07:36:05Z</time>
      </trkpt>
      <trkpt lat="44.39873" lon="5.79969">
        <ele>988</ele>
        <time>2010-07-15T07:36:10Z</time>
      </trkpt>
      <trkpt lat="44.39891" lon="5.79992">
        <ele>992</ele>
        <time>2010-07-15T07:36:32Z</time>
      </trkpt>
      <trkpt lat="44.39897" lon="5.79999">
        <ele>989</ele>
        <time>2010-07-15T07:36:39Z</time>
      </trkpt>
      <trkpt lat="44.39904" lon="5.80006">
        <ele>992</ele>
        <time>2010-07-15T07:36:46Z</time>
      </trkpt>
      <trkpt lat="44.39917" lon="5.80018">
        <ele>993</ele>
        <time>2010-07-15T07:37:00Z</time>
      </trkpt>
      <trkpt lat="44.39924" lon="5.80026">
        <ele>995</ele>
        <time>2010-07-15T07:37:08Z</time>
      </trkpt>
      <trkpt lat="44.39928" lon="5.8003">
        <ele>995</ele>
        <time>2010-07-15T07:37:12Z</time>
      </trkpt>
      <trkpt lat="44.39952" lon="5.8006">
        <ele>997</ele>
        <time>2010-07-15T07:37:35Z</time>
      </trkpt>
      <trkpt lat="44.39965" lon="5.80084">
        <ele>1000</ele>
        <time>2010-07-15T07:37:54Z</time>
      </trkpt>
      <trkpt lat="44.39979" lon="5.80108">
        <ele>1002</ele>
        <time>2010-07-15T07:38:13Z</time>
      </trkpt>
      <trkpt lat="44.39984" lon="5.80131">
        <ele>1005</ele>
        <time>2010-07-15T07:38:30Z</time>
      </trkpt>
      <trkpt lat="44.3998" lon="5.80169">
        <ele>1007</ele>
        <time>2010-07-15T07:38:53Z</time>
      </trkpt>
      <trkpt lat="44.39986" lon="5.80193">
        <ele>1008</ele>
        <time>2010-07-15T07:39:10Z</time>
      </trkpt>
      <trkpt lat="44.39992" lon="5.80214">
        <ele>1009</ele>
        <time>2010-07-15T07:39:24Z</time>
      </trkpt>
      <trkpt lat="44.40001" lon="5.80244">
        <ele>1010</ele>
        <time>2010-07-15T07:39:44Z</time>
      </trkpt>
      <trkpt lat="44.40007" lon="5.80262">
        <ele>1012</ele>
        <time>2010-07-15T07:39:57Z</time>
      </trkpt>
      <trkpt lat="44.40014" lon="5.80284">
        <ele>1012</ele>
        <time>2010-07-15T07:40:12Z</time>
      </trkpt>
      <trkpt lat="44.40028" lon="5.80325">
        <ele>1012</ele>
        <time>2010-07-15T07:40:25Z</time>
      </trkpt>
      <trkpt lat="44.40038" lon="5.80397">
        <ele>1011</ele>
        <time>2010-07-15T07:40:43Z</time>
      </trkpt>
      <trkpt lat="44.4004" lon="5.80468">
        <ele>1010</ele>
        <time>2010-07-15T07:40:59Z</time>
      </trkpt>
      <trkpt lat="44.40046" lon="5.80531">
        <ele>1009</ele>
        <time>2010-07-15T07:41:14Z</time>
      </trkpt>
      <trkpt lat="44.40052" lon="5.80595">
        <ele>1009</ele>
        <time>2010-07-15T07:41:30Z</time>
      </trkpt>
      <trkpt lat="44.40064" lon="5.8066">
        <ele>1008</ele>
        <time>2010-07-15T07:41:46Z</time>
      </trkpt>
      <trkpt lat="44.40047" lon="5.80751">
        <ele>1008</ele>
        <time>2010-07-15T07:42:08Z</time>
      </trkpt>
      <trkpt lat="44.40019" lon="5.80821">
        <ele>1008</ele>
        <time>2010-07-15T07:42:27Z</time>
      </trkpt>
      <trkpt lat="44.40013" lon="5.80886">
        <ele>1008</ele>
        <time>2010-07-15T07:42:42Z</time>
      </trkpt>
      <trkpt lat="44.4001" lon="5.80927">
        <ele>1008</ele>
        <time>2010-07-15T07:42:52Z</time>
      </trkpt>
      <trkpt lat="44.40032" lon="5.80996">
        <ele>1007</ele>
        <time>2010-07-15T07:43:09Z</time>
      </trkpt>
      <trkpt lat="44.40021" lon="5.81055">
        <ele>1006</ele>
        <time>2010-07-15T07:43:23Z</time>
      </trkpt>
      <trkpt lat="44.40007" lon="5.81117">
        <ele>1005</ele>
        <time>2010-07-15T07:43:37Z</time>
      </trkpt>
      <trkpt lat="44.4" lon="5.81184">
        <ele>1004</ele>
        <time>2010-07-15T07:43:52Z</time>
      </trkpt>
      <trkpt lat="44.40008" lon="5.81265">
        <ele>1006</ele>
        <time>2010-07-15T07:44:09Z</time>
      </trkpt>
      <trkpt lat="44.40013" lon="5.81321">
        <ele>1010</ele>
        <time>2010-07-15T07:44:20Z</time>
      </trkpt>
      <trkpt lat="44.40004" lon="5.81362">
        <ele>1012</ele>
        <time>2010-07-15T07:44:29Z</time>
      </trkpt>
      <trkpt lat="44.39994" lon="5.81413">
        <ele>1013</ele>
        <time>2010-07-15T07:44:41Z</time>
      </trkpt>
      <trkpt lat="44.39999" lon="5.81494">
        <ele>1016</ele>
        <time>2010-07-15T07:44:58Z</time>
      </trkpt>
      <trkpt lat="44.39975" lon="5.8155">
        <ele>1018</ele>
        <time>2010-07-15T07:45:13Z</time>
      </trkpt>
      <trkpt lat="44.39934" lon="5.81589">
        <ele>1018</ele>
        <time>2010-07-15T07:45:29Z</time>
      </trkpt>
      <trkpt lat="44.39914" lon="5.8164">
        <ele>1019</ele>
        <time>2010-07-15T07:45:41Z</time>
      </trkpt>
      <trkpt lat="44.3988" lon="5.81685">
        <ele>1022</ele>
        <time>2010-07-15T07:45:56Z</time>
      </trkpt>
      <trkpt lat="44.39855" lon="5.81727">
        <ele>1021</ele>
        <time>2010-07-15T07:46:08Z</time>
      </trkpt>
      <trkpt lat="44.39852" lon="5.81766">
        <ele>1022</ele>
        <time>2010-07-15T07:46:18Z</time>
      </trkpt>
      <trkpt lat="44.39864" lon="5.81791">
        <ele>1023</ele>
        <time>2010-07-15T07:46:24Z</time>
      </trkpt>
      <trkpt lat="44.39874" lon="5.81829">
        <ele>1022</ele>
        <time>2010-07-15T07:46:34Z</time>
      </trkpt>
      <trkpt lat="44.39862" lon="5.81888">
        <ele>1025</ele>
        <time>2010-07-15T07:46:48Z</time>
      </trkpt>
      <trkpt lat="44.39841" lon="5.8192">
        <ele>1027</ele>
        <time>2010-07-15T07:47:00Z</time>
      </trkpt>
      <trkpt lat="44.39816" lon="5.81961">
        <ele>1028</ele>
        <time>2010-07-15T07:47:13Z</time>
      </trkpt>
      <trkpt lat="44.39787" lon="5.82016">
        <ele>1030</ele>
        <time>2010-07-15T07:47:29Z</time>
      </trkpt>
      <trkpt lat="44.39797" lon="5.82065">
        <ele>1032</ele>
        <time>2010-07-15T07:47:42Z</time>
      </trkpt>
      <trkpt lat="44.39835" lon="5.82111">
        <ele>1032</ele>
        <time>2010-07-15T07:47:58Z</time>
      </trkpt>
      <trkpt lat="44.39833" lon="5.82174">
        <ele>1035</ele>
        <time>2010-07-15T07:48:12Z</time>
      </trkpt>
      <trkpt lat="44.39819" lon="5.82226">
        <ele>1039</ele>
        <time>2010-07-15T07:48:25Z</time>
      </trkpt>
      <trkpt lat="44.39806" lon="5.82277">
        <ele>1041</ele>
        <time>2010-07-15T07:48:37Z</time>
      </trkpt>
      <trkpt lat="44.39807" lon="5.82314">
        <ele>1044</ele>
        <time>2010-07-15T07:48:46Z</time>
      </trkpt>
      <trkpt lat="44.39809" lon="5.82331">
        <ele>1044</ele>
        <time>2010-07-15T07:48:50Z</time>
      </trkpt>
      <trkpt lat="44.39794" lon="5.82398">
        <ele>1047</ele>
        <time>2010-07-15T07:49:05Z</time>
      </trkpt>
      <trkpt lat="44.3979" lon="5.82462">
        <ele>1049</ele>
        <time>2010-07-15T07:49:20Z</time>
      </trkpt>
      <trkpt lat="44.39778" lon="5.82521">
        <ele>1052</ele>
        <time>2010-07-15T07:49:34Z</time>
      </trkpt>
      <trkpt lat="44.39788" lon="5.82552">
        <ele>1053</ele>
        <time>2010-07-15T07:49:42Z</time>
      </trkpt>
      <trkpt lat="44.39789" lon="5.82598">
        <ele>1055</ele>
        <time>2010-07-15T07:49:55Z</time>
      </trkpt>
      <trkpt lat="44.3979" lon="5.82608">
        <ele>1056</ele>
        <time>2010-07-15T07:49:58Z</time>
      </trkpt>
      <trkpt lat="44.39802" lon="5.82673">
        <ele>1057</ele>
        <time>2010-07-15T07:50:15Z</time>
      </trkpt>
      <trkpt lat="44.39804" lon="5.827">
        <ele>1060</ele>
        <time>2010-07-15T07:50:22Z</time>
      </trkpt>
      <trkpt lat="44.39812" lon="5.82748">
        <ele>1062</ele>
        <time>2010-07-15T07:50:34Z</time>
      </trkpt>
      <trkpt lat="44.39813" lon="5.82804">
        <ele>1066</ele>
        <time>2010-07-15T07:50:47Z</time>
      </trkpt>
      <trkpt lat="44.39816" lon="5.82864">
        <ele>1068</ele>
        <time>2010-07-15T07:51:01Z</time>
      </trkpt>
      <trkpt lat="44.39809" lon="5.82908">
        <ele>1071</ele>
        <time>2010-07-15T07:51:12Z</time>
      </trkpt>
      <trkpt lat="44.39802" lon="5.82954">
        <ele>1072</ele>
        <time>2010-07-15T07:51:25Z</time>
      </trkpt>
      <trkpt lat="44.39821" lon="5.82981">
        <ele>1074</ele>
        <time>2010-07-15T07:51:37Z</time>
      </trkpt>
      <trkpt lat="44.39842" lon="5.83002">
        <ele>1075.5</ele>
      </trkpt>
      <trkpt lat="44.39842" lon="5.83027">
        <ele>1078.1</ele>
      </trkpt>
      <trkpt lat="44.39789" lon="5.83111">
        <ele>1080</ele>
      </trkpt>
      <trkpt lat="44.39769" lon="5.83185">
        <ele>1078.7</ele>
      </trkpt>
      <trkpt lat="44.3979" lon="5.83381">
        <ele>1062.5</ele>
      </trkpt>
      <trkpt lat="44.39773" lon="5.83487">
        <ele>1064.7</ele>
      </trkpt>
      <trkpt lat="44.39796" lon="5.83608">
        <ele>1066.3</ele>
      </trkpt>
      <trkpt lat="44.39893" lon="5.83614">
        <ele>1036.3</ele>
      </trkpt>
      <trkpt lat="44.39956" lon="5.83536">
        <ele>1013</ele>
      </trkpt>
      <trkpt lat="44.39965" lon="5.8353">
        <ele>1010.7</ele>
      </trkpt>
      <trkpt lat="44.40042" lon="5.83504">
        <ele>992.3</ele>
      </trkpt>
      <trkpt lat="44.40051" lon="5.83526">
        <ele>990.2</ele>
      </trkpt>
      <trkpt lat="44.4006" lon="5.83527">
        <ele>988</ele>
      </trkpt>
      <trkpt lat="44.40138" lon="5.83532">
        <ele>970.1</ele>
      </trkpt>
      <trkpt lat="44.40155" lon="5.83633">
        <ele>962.5</ele>
      </trkpt>
      <trkpt lat="44.40141" lon="5.83667">
        <ele>965.5</ele>
      </trkpt>
      <trkpt lat="44.40184" lon="5.83726">
        <ele>954.6</ele>
      </trkpt>
      <trkpt lat="44.40237" lon="5.83764">
        <ele>945.6</ele>
      </trkpt>
      <trkpt lat="44.40236" lon="5.83776">
        <ele>946.9</ele>
      </trkpt>
      <trkpt lat="44.40252" lon="5.83925">
        <ele>957</ele>
      </trkpt>
      <trkpt lat="44.40284" lon="5.83955">
        <ele>948.6</ele>
      </trkpt>
      <trkpt lat="44.40284" lon="5.83955">
        <ele>948.6</ele>
      </trkpt>
      <trkpt lat="44.40351" lon="5.83991">
        <ele>942.7</ele>
      </trkpt>
      <trkpt lat="44.40419" lon="5.84042">
        <ele>943.1</ele>
      </trkpt>
      <trkpt lat="44.40439" lon="5.84125">
        <ele>935.6</ele>
      </trkpt>
      <trkpt lat="44.40447" lon="5.84154">
        <ele>931.2</ele>
      </trkpt>
      <trkpt lat="44.40544" lon="5.84229">
        <ele>926.3</ele>
      </trkpt>
      <trkpt lat="44.40625" lon="5.84215">
        <ele>930.1</ele>
      </trkpt>
      <trkpt lat="44.40773" lon="5.8423">
        <ele>907</ele>
      </trkpt>
      <trkpt lat="44.40858" lon="5.84314">
        <ele>894.6</ele>
      </trkpt>
      <trkpt lat="44.40943" lon="5.84335">
        <ele>897.7</ele>
      </trkpt>
      <trkpt lat="44.4096" lon="5.84371">
        <ele>894.5</ele>
      </trkpt>
      <trkpt lat="44.40996" lon="5.84423">
        <ele>896.2</ele>
      </trkpt>
      <trkpt lat="44.4092" lon="5.845">
        <ele>887.4</ele>
      </trkpt>
      <trkpt lat="44.40862" lon="5.846">
        <ele>892.1</ele>
      </trkpt>
      <trkpt lat="44.40904" lon="5.84716">
        <ele>891.5</ele>
      </trkpt>
      <trkpt lat="44.40876" lon="5.84808">
        <ele>880.8</ele>
      </trkpt>
      <trkpt lat="44.40912" lon="5.84889">
        <ele>869.8</ele>
      </trkpt>
      <trkpt lat="44.41089" lon="5.8496">
        <ele>852.5</ele>
      </trkpt>
      <trkpt lat="44.41177" lon="5.8504">
        <ele>851.2</ele>
      </trkpt>
      <trkpt lat="44.41174" lon="5.8505">
        <ele>850.1</ele>
      </trkpt>
      <trkpt lat="44.41144" lon="5.85089">
        <ele>850.9</ele>
      </trkpt>
      <trkpt lat="44.41185" lon="5.85207">
        <ele>853</ele>
      </trkpt>
      <trkpt lat="44.41255" lon="5.85281">
        <ele>859.8</ele>
      </trkpt>
      <trkpt lat="44.41236" lon="5.85374">
        <ele>858</ele>
      </trkpt>
      <trkpt lat="44.4125" lon="5.85425">
        <ele>858</ele>
      </trkpt>
      <trkpt lat="44.41243" lon="5.85437">
        <ele>856.7</ele>
      </trkpt>
      <trkpt lat="44.412" lon="5.85522">
        <ele>849.8</ele>
      </trkpt>
      <trkpt lat="44.41198" lon="5.85572">
        <ele>850.6</ele>
      </trkpt>
      <trkpt lat="44.41158" lon="5.85623">
        <ele>845.5</ele>
      </trkpt>
      <trkpt lat="44.41159" lon="5.85727">
        <ele>840.6</ele>
      </trkpt>
      <trkpt lat="44.41105" lon="5.85793">
        <ele>827</ele>
      </trkpt>
      <trkpt lat="44.41075" lon="5.85828">
        <ele>817.5</ele>
      </trkpt>
      <trkpt lat="44.41087" lon="5.85883">
        <ele>819.1</ele>
      </trkpt>
      <trkpt lat="44.4108" lon="5.85891">
        <ele>819.1</ele>
      </trkpt>
      <trkpt lat="44.41053" lon="5.85959">
        <ele>829.6</ele>
      </trkpt>
      <trkpt lat="44.41069" lon="5.86026">
        <ele>834.9</ele>
      </trkpt>
      <trkpt lat="44.41075" lon="5.86032">
        <ele>835.8</ele>
      </trkpt>
      <trkpt lat="44.41082" lon="5.86039">
        <ele>836.5</ele>
      </trkpt>
      <trkpt lat="44.41167" lon="5.8618">
        <ele>835.8</ele>
      </trkpt>
      <trkpt lat="44.4131" lon="5.86361">
        <ele>823.5</ele>
      </trkpt>
      <trkpt lat="44.41314" lon="5.86371">
        <ele>824.2</ele>
      </trkpt>
      <trkpt lat="44.41333" lon="5.8641">
        <ele>827.5</ele>
      </trkpt>
      <trkpt lat="44.4146" lon="5.86323">
        <ele>839.7</ele>
      </trkpt>
      <trkpt lat="44.41447" lon="5.86451">
        <ele>852.2</ele>
      </trkpt>
      <trkpt lat="44.41396" lon="5.86546">
        <ele>864.5</ele>
      </trkpt>
      <trkpt lat="44.41415" lon="5.86594">
        <ele>861</ele>
      </trkpt>
      <trkpt lat="44.41489" lon="5.86589">
        <ele>859</ele>
      </trkpt>
      <trkpt lat="44.41554" lon="5.86599">
        <ele>861.5</ele>
      </trkpt>
      <trkpt lat="44.41612" lon="5.86773">
        <ele>851.7</ele>
      </trkpt>
      <trkpt lat="44.4136" lon="5.8676">
        <ele>826.7</ele>
      </trkpt>
      <trkpt lat="44.4129" lon="5.86781">
        <ele>822.8</ele>
      </trkpt>
      <trkpt lat="44.41294" lon="5.86856">
        <ele>811.9</ele>
      </trkpt>
      <trkpt lat="44.41175" lon="5.86921">
        <ele>806</ele>
      </trkpt>
      <trkpt lat="44.41168" lon="5.87005">
        <ele>813.7</ele>
      </trkpt>
      <trkpt lat="44.4116" lon="5.87108">
        <ele>814.6</ele>
      </trkpt>
      <trkpt lat="44.41191" lon="5.87192">
        <ele>818.3</ele>
      </trkpt>
      <trkpt lat="44.41162" lon="5.8725">
        <ele>812.5</ele>
      </trkpt>
      <trkpt lat="44.40903" lon="5.87271">
        <ele>782</ele>
      </trkpt>
      <trkpt lat="44.40855" lon="5.87278">
        <ele>777.2</ele>
      </trkpt>
      <trkpt lat="44.40826" lon="5.87329">
        <ele>792.8</ele>
      </trkpt>
      <trkpt lat="44.40696" lon="5.87315">
        <ele>773.9</ele>
      </trkpt>
      <trkpt lat="44.40638" lon="5.87314">
        <ele>769.5</ele>
      </trkpt>
      <trkpt lat="44.40586" lon="5.87314">
        <ele>768.2</ele>
      </trkpt>
      <trkpt lat="44.40524" lon="5.87273">
        <ele>760.8</ele>
      </trkpt>
      <trkpt lat="44.40478" lon="5.87304">
        <ele>767.1</ele>
      </trkpt>
      <trkpt lat="44.40466" lon="5.87354">
        <ele>774.3</ele>
      </trkpt>
      <trkpt lat="44.40399" lon="5.87393">
        <ele>775.5</ele>
      </trkpt>
      <trkpt lat="44.40312" lon="5.87375">
        <ele>769.6</ele>
      </trkpt>
      <trkpt lat="44.40269" lon="5.87316">
        <ele>755.4</ele>
      </trkpt>
      <trkpt lat="44.40171" lon="5.87335">
        <ele>748.2</ele>
      </trkpt>
      <trkpt lat="44.4013" lon="5.87376">
        <ele>746.2</ele>
      </trkpt>
      <trkpt lat="44.40105" lon="5.87359">
        <ele>738.2</ele>
      </trkpt>
      <trkpt lat="44.40108" lon="5.8735">
        <ele>737.2</ele>
      </trkpt>
      <trkpt lat="44.40151" lon="5.87268">
        <ele>729.1</ele>
      </trkpt>
      <trkpt lat="44.40128" lon="5.87276">
        <ele>727.7</ele>
      </trkpt>
      <trkpt lat="44.39988" lon="5.87437">
        <ele>714</ele>
      </trkpt>
      <trkpt lat="44.39855" lon="5.87582">
        <ele>711.9</ele>
      </trkpt>
      <trkpt lat="44.39849" lon="5.87644">
        <ele>713.5</ele>
      </trkpt>
      <trkpt lat="44.39797" lon="5.87641">
        <ele>707</ele>
      </trkpt>
      <trkpt lat="44.39628" lon="5.87781">
        <ele>700.1</ele>
      </trkpt>
      <trkpt lat="44.3952" lon="5.87865">
        <ele>695.9</ele>
      </trkpt>
      <trkpt lat="44.394" lon="5.88015">
        <ele>690.7</ele>
      </trkpt>
      <trkpt lat="44.39326" lon="5.88079">
        <ele>686.5</ele>
      </trkpt>
      <trkpt lat="44.39248" lon="5.88121">
        <ele>683.4</ele>
      </trkpt>
      <trkpt lat="44.39165" lon="5.88245">
        <ele>677.8</ele>
      </trkpt>
      <trkpt lat="44.39017" lon="5.88392">
        <ele>680.3</ele>
      </trkpt>
      <trkpt lat="44.38988" lon="5.88507">
        <ele>692.8</ele>
      </trkpt>
      <trkpt lat="44.38912" lon="5.88565">
        <ele>696.2</ele>
      </trkpt>
      <trkpt lat="44.38879" lon="5.88456">
        <ele>684.1</ele>
      </trkpt>
      <trkpt lat="44.38776" lon="5.88465">
        <ele>692.8</ele>
      </trkpt>
      <trkpt lat="44.3869" lon="5.88457">
        <ele>687.8</ele>
      </trkpt>
      <trkpt lat="44.38635" lon="5.88444">
        <ele>686.6</ele>
      </trkpt>
      <trkpt lat="44.38485" lon="5.88535">
        <ele>687.6</ele>
      </trkpt>
      <trkpt lat="44.38417" lon="5.88615">
        <ele>689.7</ele>
      </trkpt>
      <trkpt lat="44.38311" lon="5.88637">
        <ele>685.2</ele>
      </trkpt>
      <trkpt lat="44.38225" lon="5.88729">
        <ele>681.8</ele>
      </trkpt>
      <trkpt lat="44.38378" lon="5.88936">
        <ele>680.9</ele>
      </trkpt>
      <trkpt lat="44.38371" lon="5.89014">
        <ele>681.2</ele>
      </trkpt>
      <trkpt lat="44.38293" lon="5.8926">
        <ele>684.8</ele>
      </trkpt>
      <trkpt lat="44.38165" lon="5.89378">
        <ele>685.9</ele>
      </trkpt>
      <trkpt lat="44.38159" lon="5.89518">
        <ele>671.5</ele>
      </trkpt>
      <trkpt lat="44.38095" lon="5.89527">
        <ele>666.4</ele>
      </trkpt>
      <trkpt lat="44.37963" lon="5.89528">
        <ele>648.8</ele>
      </trkpt>
      <trkpt lat="44.3793" lon="5.89485">
        <ele>642.9</ele>
      </trkpt>
      <trkpt lat="44.37914" lon="5.89418">
        <ele>635.8</ele>
      </trkpt>
      <trkpt lat="44.37883" lon="5.89476">
        <ele>633.1</ele>
      </trkpt>
      <trkpt lat="44.37873" lon="5.89519">
        <ele>630.6</ele>
      </trkpt>
      <trkpt lat="44.37682" lon="5.89567">
        <ele>618.6</ele>
      </trkpt>
      <trkpt lat="44.37606" lon="5.89681">
        <ele>616.5</ele>
      </trkpt>
      <trkpt lat="44.37607" lon="5.89744">
        <ele>620</ele>
      </trkpt>
      <trkpt lat="44.37613" lon="5.89747">
        <ele>620.1</ele>
      </trkpt>
      <trkpt lat="44.37717" lon="5.89949">
        <ele>617</ele>
      </trkpt>
      <trkpt lat="44.37709" lon="5.90048">
        <ele>613.4</ele>
      </trkpt>
      <trkpt lat="44.37663" lon="5.90093">
        <ele>612.6</ele>
      </trkpt>
      <trkpt lat="44.3766" lon="5.90105">
        <ele>612</ele>
      </trkpt>
      <trkpt lat="44.37655" lon="5.90186">
        <ele>609.4</ele>
      </trkpt>
      <trkpt lat="44.37646" lon="5.90195">
        <ele>609.4</ele>
      </trkpt>
      <trkpt lat="44.37565" lon="5.90388">
        <ele>611.6</ele>
      </trkpt>
      <trkpt lat="44.37544" lon="5.90427">
        <ele>612.2</ele>
      </trkpt>
      <trkpt lat="44.37416" lon="5.90287">
        <ele>608.4</ele>
      </trkpt>
      <trkpt lat="44.37414" lon="5.90275">
        <ele>607.9</ele>
      </trkpt>
      <trkpt lat="44.37414" lon="5.90275">
        <ele>607.9</ele>
      </trkpt>
      <trkpt lat="44.37205" lon="5.89995">
        <ele>593.5</ele>
      </trkpt>
      <trkpt lat="44.37152" lon="5.8995">
        <ele>597.6</ele>
      </trkpt>
      <trkpt lat="44.37106" lon="5.89979">
        <ele>599.8</ele>
      </trkpt>
      <trkpt lat="44.37006" lon="5.9002">
        <ele>603.9</ele>
      </trkpt>
      <trkpt lat="44.3684" lon="5.89915">
        <ele>594.5</ele>
      </trkpt>
      <trkpt lat="44.36794" lon="5.89827">
        <ele>599.8</ele>
      </trkpt>
      <trkpt lat="44.36663" lon="5.89615">
        <ele>598.8</ele>
      </trkpt>
      <trkpt lat="44.36559" lon="5.89442">
        <ele>598.1</ele>
      </trkpt>
      <trkpt lat="44.36551" lon="5.89342">
        <ele>597.6</ele>
      </trkpt>
      <trkpt lat="44.36466" lon="5.89126">
        <ele>604.1</ele>
      </trkpt>
      <trkpt lat="44.36182" lon="5.89325">
        <ele>592.1</ele>
      </trkpt>
      <trkpt lat="44.36154" lon="5.89376">
        <ele>588.1</ele>
      </trkpt>
      <trkpt lat="44.36126" lon="5.89456">
        <ele>583.2</ele>
      </trkpt>
      <trkpt lat="44.36109" lon="5.89436">
        <ele>582.1</ele>
      </trkpt>
      <trkpt lat="44.36049" lon="5.89344">
        <ele>580.8</ele>
      </trkpt>
      <trkpt lat="44.35958" lon="5.89379">
        <ele>588.5</ele>
      </trkpt>
      <trkpt lat="44.35823" lon="5.89449">
        <ele>599.6</ele>
      </trkpt>
      <trkpt lat="44.35778" lon="5.89446">
        <ele>599.9</ele>
      </trkpt>
      <trkpt lat="44.35769" lon="5.89446">
        <ele>600.2</ele>
      </trkpt>
      <trkpt lat="44.35707" lon="5.89464">
        <ele>601.8</ele>
      </trkpt>
      <trkpt lat="44.356" lon="5.89583">
        <ele>604.6</ele>
      </trkpt>
      <trkpt lat="44.35572" lon="5.89669">
        <ele>607.6</ele>
      </trkpt>
      <trkpt lat="44.3553" lon="5.89666">
        <ele>606.3</ele>
      </trkpt>
      <trkpt lat="44.35472" lon="5.89709">
        <ele>601.8</ele>
      </trkpt>
      <trkpt lat="44.35392" lon="5.89748">
        <ele>608</ele>
      </trkpt>
      <trkpt lat="44.3534" lon="5.89701">
        <ele>612.7</ele>
      </trkpt>
      <trkpt lat="44.35316" lon="5.89674">
        <ele>613.9</ele>
      </trkpt>
      <trkpt lat="44.35166" lon="5.89568">
        <ele>635.8</ele>
      </trkpt>
      <trkpt lat="44.3516" lon="5.89564">
        <ele>636.4</ele>
      </trkpt>
      <trkpt lat="44.35055" lon="5.89448">
        <ele>643.7</ele>
      </trkpt>
      <trkpt lat="44.34948" lon="5.8935">
        <ele>660.3</ele>
      </trkpt>
      <trkpt lat="44.3491" lon="5.89348">
        <ele>665.6</ele>
      </trkpt>
      <trkpt lat="44.34932" lon="5.89283">
        <ele>671</ele>
      </trkpt>
      <trkpt lat="44.34808" lon="5.89172">
        <ele>679.3</ele>
      </trkpt>
      <trkpt lat="44.34746" lon="5.89134">
        <ele>685.6</ele>
      </trkpt>
      <trkpt lat="44.34647" lon="5.89118">
        <ele>688.7</ele>
      </trkpt>
      <trkpt lat="44.34634" lon="5.89117">
        <ele>687.9</ele>
      </trkpt>
      <trkpt lat="44.34472" lon="5.88966">
        <ele>696.9</ele>
      </trkpt>
      <trkpt lat="44.34392" lon="5.88885">
        <ele>693.9</ele>
      </trkpt>
      <trkpt lat="44.34201" lon="5.88867">
        <ele>689.6</ele>
      </trkpt>
      <trkpt lat="44.341" lon="5.88873">
        <ele>689.8</ele>
      </trkpt>
      <trkpt lat="44.33857" lon="5.88783">
        <ele>682.8</ele>
      </trkpt>
      <trkpt lat="44.33783" lon="5.88637">
        <ele>678.7</ele>
      </trkpt>
      <trkpt lat="44.33625" lon="5.88464">
        <ele>672.4</ele>
      </trkpt>
      <trkpt lat="44.33522" lon="5.8842">
        <ele>671.4</ele>
      </trkpt>
      <trkpt lat="44.33481" lon="5.88367">
        <ele>670</ele>
      </trkpt>
      <trkpt lat="44.33421" lon="5.88276">
        <ele>668.4</ele>
      </trkpt>
      <trkpt lat="44.33363" lon="5.88256">
        <ele>668.4</ele>
      </trkpt>
      <trkpt lat="44.33394" lon="5.88158">
        <ele>661.8</ele>
      </trkpt>
      <trkpt lat="44.33431" lon="5.88047">
        <ele>661.4</ele>
      </trkpt>
      <trkpt lat="44.33443" lon="5.8796">
        <ele>660.4</ele>
      </trkpt>
      <trkpt lat="44.33554" lon="5.87864">
        <ele>662.1</ele>
      </trkpt>
      <trkpt lat="44.33604" lon="5.87695">
        <ele>665.5</ele>
      </trkpt>
      <trkpt lat="44.33601" lon="5.87591">
        <ele>664.6</ele>
      </trkpt>
      <trkpt lat="44.33611" lon="5.8756">
        <ele>664.2</ele>
      </trkpt>
      <trkpt lat="44.33632" lon="5.87398">
        <ele>658.1</ele>
      </trkpt>
      <trkpt lat="44.33683" lon="5.87298">
        <ele>654.6</ele>
      </trkpt>
      <trkpt lat="44.33689" lon="5.87292">
        <ele>654</ele>
      </trkpt>
      <trkpt lat="44.33812" lon="5.8725">
        <ele>656.2</ele>
      </trkpt>
      <trkpt lat="44.33821" lon="5.8725">
        <ele>656.6</ele>
      </trkpt>
      <trkpt lat="44.33832" lon="5.87254">
        <ele>657.3</ele>
      </trkpt>
      <trkpt lat="44.34001" lon="5.87346">
        <ele>664</ele>
      </trkpt>
      <trkpt lat="44.34012" lon="5.87347">
        <ele>664.8</ele>
      </trkpt>
      <trkpt lat="44.34171" lon="5.8736">
        <ele>671</ele>
      </trkpt>
      <trkpt lat="44.3418" lon="5.87361">
        <ele>671</ele>
      </trkpt>
      <trkpt lat="44.34189" lon="5.87367">
        <ele>671.3</ele>
      </trkpt>
      <trkpt lat="44.34202" lon="5.87371">
        <ele>671.4</ele>
      </trkpt>
      <trkpt lat="44.34213" lon="5.87372">
        <ele>671.4</ele>
      </trkpt>
      <trkpt lat="44.3442" lon="5.87263">
        <ele>679.2</ele>
      </trkpt>
      <trkpt lat="44.34434" lon="5.87176">
        <ele>679</ele>
      </trkpt>
      <trkpt lat="44.34338" lon="5.86988">
        <ele>685.1</ele>
      </trkpt>
      <trkpt lat="44.34329" lon="5.86991">
        <ele>684.9</ele>
      </trkpt>
      <trkpt lat="44.3432" lon="5.86996">
        <ele>684.5</ele>
      </trkpt>
      <trkpt lat="44.34311" lon="5.86999">
        <ele>684.2</ele>
      </trkpt>
      <trkpt lat="44.34235" lon="5.86982">
        <ele>681.8</ele>
      </trkpt>
      <trkpt lat="44.34229" lon="5.86975">
        <ele>682</ele>
      </trkpt>
      <trkpt lat="44.34139" lon="5.86809">
        <ele>690.9</ele>
      </trkpt>
      <trkpt lat="44.34131" lon="5.86727">
        <ele>689.3</ele>
      </trkpt>
      <trkpt lat="44.34204" lon="5.86613">
        <ele>693.8</ele>
      </trkpt>
      <trkpt lat="44.34211" lon="5.8646">
        <ele>688.8</ele>
      </trkpt>
      <trkpt lat="44.34214" lon="5.8645">
        <ele>688.6</ele>
      </trkpt>
      <trkpt lat="44.34247" lon="5.86274">
        <ele>672.2</ele>
      </trkpt>
      <trkpt lat="44.34318" lon="5.86291">
        <ele>663.9</ele>
      </trkpt>
      <trkpt lat="44.34418" lon="5.86115">
        <ele>646.9</ele>
      </trkpt>
      <trkpt lat="44.34423" lon="5.86106">
        <ele>644.9</ele>
      </trkpt>
      <trkpt lat="44.34451" lon="5.86073">
        <ele>637.1</ele>
      </trkpt>
      <trkpt lat="44.34408" lon="5.86008">
        <ele>633.8</ele>
      </trkpt>
      <trkpt lat="44.34413" lon="5.85776">
        <ele>634.4</ele>
      </trkpt>
      <trkpt lat="44.34484" lon="5.85555">
        <ele>632.8</ele>
      </trkpt>
      <trkpt lat="44.34436" lon="5.85354">
        <ele>634.6</ele>
      </trkpt>
      <trkpt lat="44.34486" lon="5.85213">
        <ele>632.3</ele>
      </trkpt>
      <trkpt lat="44.34527" lon="5.8504">
        <ele>630.1</ele>
      </trkpt>
      <trkpt lat="44.34579" lon="5.85043">
        <ele>628.3</ele>
      </trkpt>
      <trkpt lat="44.34581" lon="5.85053">
        <ele>629.6</ele>
      </trkpt>
      <trkpt lat="44.34625" lon="5.85068">
        <ele>631</ele>
      </trkpt>
      <trkpt lat="44.34646" lon="5.8505">
        <ele>629.6</ele>
      </trkpt>
      <trkpt lat="44.34744" lon="5.85082">
        <ele>626.8</ele>
      </trkpt>
      <trkpt lat="44.34771" lon="5.85011">
        <ele>626</ele>
      </trkpt>
      <trkpt lat="44.34961" lon="5.84857">
        <ele>629.6</ele>
      </trkpt>
      <trkpt lat="44.34992" lon="5.84799">
        <ele>629.8</ele>
      </trkpt>
      <trkpt lat="44.35096" lon="5.84705">
        <ele>633.5</ele>
      </trkpt>
      <trkpt lat="44.35096" lon="5.84705">
        <ele>633.5</ele>
      </trkpt>
      <trkpt lat="44.35088" lon="5.84611">
        <ele>635.2</ele>
      </trkpt>
      <trkpt lat="44.35118" lon="5.84569">
        <ele>636.3</ele>
      </trkpt>
      <trkpt lat="44.35082" lon="5.84281">
        <ele>635.7</ele>
      </trkpt>
      <trkpt lat="44.3498" lon="5.84181">
        <ele>633.6</ele>
      </trkpt>
      <trkpt lat="44.34974" lon="5.84168">
        <ele>633.1</ele>
      </trkpt>
      <trkpt lat="44.34908" lon="5.83975">
        <ele>633</ele>
      </trkpt>
      <trkpt lat="44.34841" lon="5.83946">
        <ele>632.9</ele>
      </trkpt>
      <trkpt lat="44.34875" lon="5.83792">
        <ele>644.8</ele>
      </trkpt>
      <trkpt lat="44.34837" lon="5.83733">
        <ele>647.7</ele>
      </trkpt>
      <trkpt lat="44.34791" lon="5.83771">
        <ele>644</ele>
      </trkpt>
      <trkpt lat="44.34738" lon="5.83648">
        <ele>637.6</ele>
      </trkpt>
      <trkpt lat="44.34754" lon="5.83577">
        <ele>636.9</ele>
      </trkpt>
      <trkpt lat="44.34803" lon="5.83448">
        <ele>632.2</ele>
      </trkpt>
      <trkpt lat="44.34712" lon="5.83562">
        <ele>633.1</ele>
      </trkpt>
      <trkpt lat="44.34685" lon="5.83545">
        <ele>630.5</ele>
      </trkpt>
      <trkpt lat="44.34717" lon="5.83471">
        <ele>628.8</ele>
      </trkpt>
      <trkpt lat="44.34711" lon="5.83458">
        <ele>629.1</ele>
      </trkpt>
      <trkpt lat="44.34721" lon="5.83424">
        <ele>631.3</ele>
      </trkpt>
      <trkpt lat="44.34754" lon="5.83379">
        <ele>637.8</ele>
      </trkpt>
      <trkpt lat="44.34753" lon="5.83323">
        <ele>639.8</ele>
      </trkpt>
      <trkpt lat="44.34742" lon="5.8326">
        <ele>639.4</ele>
      </trkpt>
      <trkpt lat="44.34721" lon="5.83196">
        <ele>642</ele>
      </trkpt>
      <trkpt lat="44.34712" lon="5.83198">
        <ele>641.8</ele>
      </trkpt>
      <trkpt lat="44.34553" lon="5.83232">
        <ele>645.1</ele>
      </trkpt>
      <trkpt lat="44.3451" lon="5.83182">
        <ele>651.3</ele>
      </trkpt>
      <trkpt lat="44.34541" lon="5.83071">
        <ele>661.4</ele>
      </trkpt>
      <trkpt lat="44.3476" lon="5.82837">
        <ele>680.2</ele>
      </trkpt>
      <trkpt lat="44.34939" lon="5.82582">
        <ele>698.7</ele>
      </trkpt>
      <trkpt lat="44.34948" lon="5.82579">
        <ele>700.2</ele>
      </trkpt>
      <trkpt lat="44.35023" lon="5.82537">
        <ele>708</ele>
      </trkpt>
      <trkpt lat="44.3503" lon="5.82531">
        <ele>708.9</ele>
      </trkpt>
      <trkpt lat="44.35258" lon="5.82379">
        <ele>730.6</ele>
      </trkpt>
      <trkpt lat="44.35263" lon="5.8237">
        <ele>731.1</ele>
      </trkpt>
      <trkpt lat="44.35501" lon="5.82112">
        <ele>727.2</ele>
      </trkpt>
      <trkpt lat="44.35582" lon="5.82085">
        <ele>726.2</ele>
      </trkpt>
      <trkpt lat="44.35583" lon="5.82073">
        <ele>724.8</ele>
      </trkpt>
      <trkpt lat="44.35647" lon="5.81829">
        <ele>715.1</ele>
      </trkpt>
      <trkpt lat="44.3564" lon="5.81825">
        <ele>714.8</ele>
      </trkpt>
      <trkpt lat="44.35379" lon="5.81489">
        <ele>699.5</ele>
      </trkpt>
      <trkpt lat="44.35405" lon="5.81428">
        <ele>696.7</ele>
      </trkpt>
      <trkpt lat="44.35412" lon="5.81432">
        <ele>697.5</ele>
      </trkpt>
      <trkpt lat="44.35418" lon="5.81439">
        <ele>698.9</ele>
      </trkpt>
      <trkpt lat="44.35502" lon="5.81488">
        <ele>696.1</ele>
      </trkpt>
      <trkpt lat="44.35508" lon="5.81447">
        <ele>694.3</ele>
      </trkpt>
      <trkpt lat="44.35515" lon="5.81451">
        <ele>695.9</ele>
      </trkpt>
      <trkpt lat="44.35521" lon="5.81457">
        <ele>696.6</ele>
      </trkpt>
      <trkpt lat="44.35632" lon="5.8158">
        <ele>705.8</ele>
      </trkpt>
      <trkpt lat="44.35646" lon="5.81581">
        <ele>707</ele>
      </trkpt>
      <trkpt lat="44.35786" lon="5.81496">
        <ele>724.4</ele>
      </trkpt>
      <trkpt lat="44.35784" lon="5.81486">
        <ele>725.5</ele>
      </trkpt>
      <trkpt lat="44.35826" lon="5.81417">
        <ele>736.5</ele>
      </trkpt>
      <trkpt lat="44.3582" lon="5.81253">
        <ele>765.1</ele>
      </trkpt>
      <trkpt lat="44.35873" lon="5.81081">
        <ele>772.6</ele>
      </trkpt>
      <trkpt lat="44.35991" lon="5.80705">
        <ele>793.3</ele>
      </trkpt>
      <trkpt lat="44.35993" lon="5.80696">
        <ele>793.5</ele>
      </trkpt>
      <trkpt lat="44.36073" lon="5.80516">
        <ele>801.8</ele>
      </trkpt>
      <trkpt lat="44.35982" lon="5.80498">
        <ele>795</ele>
      </trkpt>
      <trkpt lat="44.35888" lon="5.8053">
        <ele>795</ele>
      </trkpt>
      <trkpt lat="44.35798" lon="5.80618">
        <ele>788.9</ele>
      </trkpt>
      <trkpt lat="44.35578" lon="5.80674">
        <ele>791.5</ele>
      </trkpt>
      <trkpt lat="44.35488" lon="5.80662">
        <ele>779.6</ele>
      </trkpt>
      <trkpt lat="44.35402" lon="5.80534">
        <ele>778.3</ele>
      </trkpt>
      <trkpt lat="44.35265" lon="5.80585">
        <ele>785.1</ele>
      </trkpt>
      <trkpt lat="44.35089" lon="5.80628">
        <ele>776.2</ele>
      </trkpt>
      <trkpt lat="44.35075" lon="5.80618">
        <ele>771</ele>
      </trkpt>
      <trkpt lat="44.35005" lon="5.80582">
        <ele>788.5</ele>
      </trkpt>
      <trkpt lat="44.34919" lon="5.80577">
        <ele>797.2</ele>
      </trkpt>
      <trkpt lat="44.34906" lon="5.8057">
        <ele>796.3</ele>
      </trkpt>
      <trkpt lat="44.34852" lon="5.80435">
        <ele>782.2</ele>
      </trkpt>
      <trkpt lat="44.34806" lon="5.80168">
        <ele>774.1</ele>
      </trkpt>
      <trkpt lat="44.34802" lon="5.80149">
        <ele>773</ele>
      </trkpt>
      <trkpt lat="44.34789" lon="5.8013">
        <ele>770.4</ele>
      </trkpt>
      <trkpt lat="44.34725" lon="5.8017">
        <ele>766.8</ele>
      </trkpt>
      <trkpt lat="44.34541" lon="5.80296">
        <ele>763.2</ele>
      </trkpt>
      <trkpt lat="44.34519" lon="5.80295">
        <ele>763.4</ele>
      </trkpt>
      <trkpt lat="44.3446" lon="5.80285">
        <ele>761.3</ele>
      </trkpt>
      <trkpt lat="44.34447" lon="5.80278">
        <ele>760.4</ele>
      </trkpt>
      <trkpt lat="44.34601" lon="5.80118">
        <ele>787.5</ele>
      </trkpt>
      <trkpt lat="44.34606" lon="5.801">
        <ele>788.5</ele>
      </trkpt>
      <trkpt lat="44.34698" lon="5.8003">
        <ele>796</ele>
      </trkpt>
      <trkpt lat="44.34743" lon="5.79888">
        <ele>808.3</ele>
      </trkpt>
      <trkpt lat="44.34658" lon="5.79877">
        <ele>815.1</ele>
      </trkpt>
      <trkpt lat="44.34645" lon="5.79857">
        <ele>818.5</ele>
      </trkpt>
      <trkpt lat="44.34632" lon="5.79838">
        <ele>820.9</ele>
      </trkpt>
      <trkpt lat="44.34633" lon="5.79662">
        <ele>828.8</ele>
      </trkpt>
      <trkpt lat="44.34629" lon="5.79643">
        <ele>826.2</ele>
      </trkpt>
      <trkpt lat="44.34714" lon="5.79096">
        <ele>792</ele>
      </trkpt>
      <trkpt lat="44.34803" lon="5.78983">
        <ele>773.2</ele>
      </trkpt>
      <trkpt lat="44.34874" lon="5.7888">
        <ele>757.2</ele>
      </trkpt>
      <trkpt lat="44.35046" lon="5.78571">
        <ele>740.2</ele>
      </trkpt>
    </trkseg>
  </trk>
</gpx>